createdAt,value
2019-01-20T00:01:34.483Z,7.33
2019-01-20T00:04:04.106Z,8.17
2019-01-20T00:06:33.383Z,8.67
2019-01-20T00:09:04.099Z,8.73
2019-01-20T00:11:33.362Z,9.37
2019-01-20T00:14:02.388Z,9.67
2019-01-20T00:16:31.335Z,10.13
2019-01-20T00:19:00.314Z,10.80
2019-01-20T00:21:29.420Z,8.00
2019-01-20T00:23:58.505Z,10.90
2019-01-20T00:26:27.531Z,10.50
2019-01-20T00:28:56.826Z,7.40
2019-01-20T00:31:25.839Z,9.07
2019-01-20T00:33:54.805Z,11.10
2019-01-20T00:36:24.128Z,11.80
2019-01-20T00:38:53.140Z,9.10
2019-01-20T00:41:24.389Z,7.47
2019-01-20T00:43:52.958Z,7.90
2019-01-20T00:46:22.352Z,8.53
2019-01-20T00:48:51.901Z,5.47
2019-01-20T00:51:21.450Z,8.63
2019-01-20T00:53:50.822Z,10.87
2019-01-20T00:56:19.825Z,9.53
2019-01-20T00:58:49.098Z,9.93
2019-01-20T01:01:18.143Z,9.60
2019-01-20T01:03:47.095Z,11.60
2019-01-20T01:06:17.519Z,9.67
2019-01-20T01:08:46.902Z,6.80
2019-01-20T01:11:15.908Z,7.50
2019-01-20T01:13:44.913Z,6.87
2019-01-20T01:16:13.929Z,10.40
2019-01-20T01:18:42.842Z,8.87
2019-01-20T01:21:12.181Z,11.17
2019-01-20T01:23:41.822Z,7.37
2019-01-20T01:26:10.842Z,7.37
2019-01-20T01:28:39.793Z,13.87
2019-01-20T01:31:08.853Z,12.80
2019-01-20T01:33:38.174Z,11.07
2019-01-20T01:36:07.266Z,24.17
2019-01-20T01:38:36.331Z,7.67
2019-01-20T01:41:05.711Z,10.17
2019-01-20T01:43:34.577Z,10.33
2019-01-20T01:46:03.612Z,10.27
2019-01-20T01:48:32.462Z,13.33
2019-01-20T01:51:01.508Z,11.67
2019-01-20T01:53:30.525Z,14.73
2019-01-20T01:55:59.565Z,9.00
2019-01-20T01:58:28.576Z,8.37
2019-01-20T02:00:57.876Z,8.70
2019-01-20T02:03:26.784Z,8.77
2019-01-20T02:05:55.852Z,10.63
2019-01-20T02:08:24.908Z,14.90
2019-01-20T02:10:54.604Z,10.23
2019-01-20T02:13:24.239Z,8.70
2019-01-20T02:15:53.287Z,9.17
2019-01-20T02:18:22.912Z,11.03
2019-01-20T02:20:52.516Z,8.47
2019-01-20T02:23:21.550Z,6.67
2019-01-20T02:25:51.241Z,5.47
2019-01-20T02:28:20.655Z,6.30
2019-01-20T02:30:49.610Z,8.47
2019-01-20T02:33:19.235Z,6.00
2019-01-20T02:35:48.479Z,7.53
2019-01-20T02:38:17.513Z,9.77
2019-01-20T02:40:46.790Z,6.63
2019-01-20T02:43:15.760Z,5.53
2019-01-20T02:45:44.794Z,8.43
2019-01-20T02:48:13.814Z,7.40
2019-01-20T02:50:42.800Z,7.90
2019-01-20T02:53:11.865Z,8.60
2019-01-20T02:55:40.791Z,11.83
2019-01-20T02:58:10.528Z,9.63
2019-01-20T03:00:39.591Z,8.67
2019-01-20T03:03:08.651Z,6.97
2019-01-20T03:05:37.675Z,8.90
2019-01-20T03:08:06.831Z,6.33
2019-01-20T03:10:35.860Z,5.53
2019-01-20T03:13:04.907Z,8.90
2019-01-20T03:15:33.962Z,13.33
2019-01-20T03:18:03.112Z,9.93
2019-01-20T03:20:32.156Z,7.67
2019-01-20T03:23:01.184Z,6.93
2019-01-20T03:25:30.410Z,7.37
2019-01-20T03:27:59.485Z,6.20
2019-01-20T03:30:29.280Z,8.77
2019-01-20T03:32:58.544Z,4.97
2019-01-20T03:35:27.950Z,9.90
2019-01-20T03:37:56.998Z,8.60
2019-01-20T03:40:26.343Z,9.67
2019-01-20T03:42:55.288Z,5.53
2019-01-20T03:45:24.322Z,10.27
2019-01-20T03:47:53.342Z,12.67
2019-01-20T03:50:22.402Z,9.00
2019-01-20T03:52:51.820Z,7.30
2019-01-20T03:55:20.869Z,8.07
2019-01-20T03:57:49.986Z,9.60
2019-01-20T04:00:22.747Z,6.13
2019-01-20T04:02:54.995Z,7.13
2019-01-20T04:05:24.067Z,6.33
2019-01-20T04:07:53.206Z,6.80
2019-01-20T04:10:22.211Z,7.20
2019-01-20T04:12:51.537Z,9.20
2019-01-20T04:15:20.564Z,7.17
2019-01-20T04:17:49.619Z,7.90
2019-01-20T04:20:18.686Z,7.03
2019-01-20T04:22:47.719Z,6.27
2019-01-20T04:25:17.968Z,6.63
2019-01-20T04:27:47.200Z,9.73
2019-01-20T04:30:18.257Z,5.93
2019-01-20T04:32:47.650Z,6.90
2019-01-20T04:35:17.041Z,8.70
2019-01-20T04:37:46.248Z,6.23
2019-01-20T04:40:17.616Z,9.73
2019-01-20T04:42:46.735Z,9.70
2019-01-20T04:45:16.137Z,9.37
2019-01-20T04:47:45.169Z,7.57
2019-01-20T04:50:16.802Z,5.27
2019-01-20T04:52:45.830Z,7.40
2019-01-20T04:55:15.293Z,10.60
2019-01-20T04:57:48.385Z,5.90
2019-01-20T05:00:19.536Z,6.13
2019-01-20T05:02:48.673Z,6.07
2019-01-20T05:05:18.934Z,5.70
2019-01-20T05:07:48.084Z,6.10
2019-01-20T05:10:17.419Z,5.43
2019-01-20T05:12:46.434Z,8.27
2019-01-20T05:15:17.562Z,6.60
2019-01-20T05:17:46.579Z,6.63
2019-01-20T05:20:15.861Z,7.03
2019-01-20T05:22:44.782Z,8.13
2019-01-20T05:25:14.480Z,10.07
2019-01-20T05:27:43.496Z,6.87
2019-01-20T05:30:14.973Z,6.97
2019-01-20T05:32:44.400Z,6.13
2019-01-20T05:35:13.437Z,8.10
2019-01-20T05:37:42.717Z,6.90
2019-01-20T05:40:13.310Z,6.83
2019-01-20T05:42:46.271Z,6.47
2019-01-20T05:45:18.243Z,7.83
2019-01-20T05:47:47.240Z,7.47
2019-01-20T05:50:16.342Z,5.90
2019-01-20T05:52:45.440Z,7.03
2019-01-20T05:55:15.286Z,6.43
2019-01-20T05:57:44.884Z,6.07
2019-01-20T06:00:20.324Z,9.43
2019-01-20T06:02:49.358Z,8.93
2019-01-20T06:05:18.405Z,9.10
2019-01-20T06:07:49.038Z,6.47
2019-01-20T06:10:18.434Z,10.97
2019-01-20T06:12:53.837Z,6.03
2019-01-20T06:15:19.387Z,7.67
2019-01-20T06:17:48.429Z,7.53
2019-01-20T06:20:18.366Z,6.93
2019-01-20T06:22:47.730Z,7.77
2019-01-20T06:25:16.910Z,8.20
2019-01-20T06:27:46.011Z,7.07
2019-01-20T06:30:20.716Z,8.07
2019-01-20T06:32:49.680Z,7.97
2019-01-20T06:35:19.024Z,7.50
2019-01-20T06:37:48.323Z,8.63
2019-01-20T06:40:17.690Z,8.13
2019-01-20T06:42:46.710Z,6.90
2019-01-20T06:45:16.075Z,7.87
2019-01-20T06:47:45.116Z,6.50
2019-01-20T06:50:14.713Z,6.60
2019-01-20T06:52:43.681Z,9.00
2019-01-20T06:55:13.929Z,7.80
2019-01-20T06:57:42.968Z,7.53
2019-01-20T07:00:17.175Z,7.63
2019-01-20T07:02:46.599Z,9.57
2019-01-20T07:05:15.796Z,5.93
2019-01-20T07:07:45.143Z,6.53
2019-01-20T07:10:15.343Z,6.80
2019-01-20T07:12:44.372Z,11.03
2019-01-20T07:15:18.642Z,6.57
2019-01-20T07:17:48.006Z,6.13
2019-01-20T07:20:17.197Z,7.33
2019-01-20T07:22:46.570Z,8.53
2019-01-20T07:25:15.810Z,8.23
2019-01-20T07:27:44.761Z,8.47
2019-01-20T07:30:16.690Z,5.93
2019-01-20T07:32:45.727Z,10.27
2019-01-20T07:35:14.978Z,8.90
2019-01-20T07:37:44.016Z,10.00
2019-01-20T07:40:14.742Z,8.07
2019-01-20T07:42:43.802Z,13.23
2019-01-20T07:45:13.774Z,7.37
2019-01-20T07:47:42.838Z,7.60
2019-01-20T07:50:17.487Z,9.03
2019-01-20T07:52:46.776Z,14.50
2019-01-20T07:55:16.107Z,9.70
2019-01-20T07:57:45.460Z,11.47
2019-01-20T08:00:16.710Z,9.97
2019-01-20T08:02:46.440Z,17.07
2019-01-20T08:05:15.672Z,9.83
2019-01-20T08:07:44.755Z,8.70
2019-01-20T08:10:16.897Z,8.37
2019-01-20T08:12:45.993Z,9.70
2019-01-20T08:15:15.482Z,11.43
2019-01-20T08:17:44.950Z,6.73
2019-01-20T08:20:16.468Z,9.07
2019-01-20T08:22:45.505Z,9.53
2019-01-20T08:25:15.632Z,7.93
2019-01-20T08:27:44.592Z,9.43
2019-01-20T08:30:18.609Z,7.80
2019-01-20T08:32:47.978Z,8.17
2019-01-20T08:35:18.778Z,8.47
2019-01-20T08:37:47.820Z,11.20
2019-01-20T08:40:19.514Z,8.47
2019-01-20T08:42:48.519Z,11.00
2019-01-20T08:45:25.175Z,8.37
2019-01-20T08:48:01.438Z,6.70
2019-01-20T08:50:30.449Z,10.53
2019-01-20T08:52:59.744Z,14.73
2019-01-20T08:55:29.135Z,10.10
2019-01-20T08:57:58.389Z,9.40
2019-01-20T09:00:27.426Z,8.33
2019-01-20T09:02:56.455Z,7.97
2019-01-20T09:05:25.775Z,9.73
2019-01-20T09:07:55.084Z,9.60
2019-01-20T09:10:27.780Z,9.43
2019-01-20T09:13:00.541Z,10.93
2019-01-20T09:15:29.631Z,10.53
2019-01-20T09:17:58.676Z,11.17
2019-01-20T09:20:28.442Z,10.93
2019-01-20T09:22:57.744Z,10.77
2019-01-20T09:25:27.136Z,9.87
2019-01-20T09:27:56.166Z,8.37
2019-01-20T09:30:25.538Z,9.23
2019-01-20T09:32:54.851Z,11.20
2019-01-20T09:35:27.337Z,9.93
2019-01-20T09:37:56.639Z,11.07
2019-01-20T09:40:25.831Z,10.13
2019-01-20T09:42:54.870Z,11.77
2019-01-20T09:45:27.987Z,10.30
2019-01-20T09:47:57.170Z,8.50
2019-01-20T09:50:26.554Z,9.07
2019-01-20T09:52:56.196Z,11.83
2019-01-20T09:55:25.508Z,10.10
2019-01-20T09:57:54.816Z,11.33
2019-01-20T10:00:26.238Z,9.77
2019-01-20T10:02:55.630Z,9.13
2019-01-20T10:05:24.997Z,12.57
2019-01-20T10:07:54.360Z,9.17
2019-01-20T10:10:23.746Z,10.53
2019-01-20T10:12:53.372Z,12.93
2019-01-20T10:15:22.778Z,10.23
2019-01-20T10:17:51.838Z,10.00
2019-01-20T10:20:26.084Z,12.00
2019-01-20T10:22:55.112Z,12.63
2019-01-20T10:25:24.477Z,10.93
2019-01-20T10:27:53.794Z,10.73
2019-01-20T10:30:25.433Z,11.57
2019-01-20T10:32:55.252Z,14.13
2019-01-20T10:35:49.151Z,13.03
2019-01-20T10:38:18.175Z,11.13
2019-01-20T10:40:47.895Z,9.40
2019-01-20T10:43:17.139Z,11.97
2019-01-20T10:45:46.548Z,14.00
2019-01-20T10:48:15.811Z,13.13
2019-01-20T10:50:45.167Z,9.73
2019-01-20T10:53:14.186Z,10.33
2019-01-20T10:55:43.521Z,11.10
2019-01-20T10:58:12.641Z,11.13
2019-01-20T11:00:42.205Z,10.47
2019-01-20T11:03:11.268Z,11.13
2019-01-20T11:05:40.482Z,11.30
2019-01-20T11:08:09.523Z,13.03
2019-01-20T11:10:40.024Z,11.70
2019-01-20T11:13:09.368Z,12.73
2019-01-20T11:15:38.958Z,13.70
2019-01-20T11:18:08.373Z,13.87
2019-01-20T11:20:37.559Z,16.23
2019-01-20T11:23:06.613Z,13.67
2019-01-20T11:25:38.698Z,14.23
2019-01-20T11:28:08.200Z,12.83
2019-01-20T11:30:37.376Z,14.47
2019-01-20T11:33:06.513Z,12.73
2019-01-20T11:35:35.475Z,13.87
2019-01-20T11:38:05.372Z,15.23
2019-01-20T11:40:34.330Z,16.33
2019-01-20T11:43:04.010Z,12.33
2019-01-20T11:45:33.947Z,15.27
2019-01-20T11:48:03.418Z,15.90
2019-01-20T11:50:33.262Z,18.27
2019-01-20T11:53:02.664Z,15.43
2019-01-20T11:55:31.940Z,17.53
2019-01-20T11:58:01.147Z,15.43
2019-01-20T12:00:35.464Z,14.37
2019-01-20T12:03:05.097Z,13.47
2019-01-20T12:05:35.503Z,17.43
2019-01-20T12:08:04.527Z,16.53
2019-01-20T12:10:33.897Z,14.23
2019-01-20T12:13:23.869Z,14.00
2019-01-20T12:15:53.593Z,16.57
2019-01-20T12:18:22.891Z,17.33
2019-01-20T12:20:52.694Z,17.20
2019-01-20T12:23:21.715Z,14.40
2019-01-20T12:25:50.726Z,17.17
2019-01-20T12:28:19.970Z,18.13
2019-01-20T12:30:51.351Z,83.80
2019-01-20T12:33:21.272Z,86.97
2019-01-20T12:35:51.333Z,15.43
2019-01-20T12:38:20.538Z,14.17
2019-01-20T12:40:49.979Z,18.17
2019-01-20T12:43:19.677Z,15.50
2019-01-20T12:45:49.185Z,16.10
2019-01-20T12:48:18.572Z,12.93
2019-01-20T12:50:47.650Z,21.67
2019-01-20T12:53:16.751Z,17.90
2019-01-20T12:55:45.692Z,18.00
2019-01-20T12:58:15.074Z,13.60
2019-01-20T13:00:44.568Z,16.43
2019-01-20T13:03:13.877Z,13.90
2019-01-20T13:05:42.893Z,16.00
2019-01-20T13:08:12.211Z,16.77
2019-01-20T13:10:41.261Z,15.80
2019-01-20T13:13:10.766Z,16.97
2019-01-20T13:15:40.117Z,16.27
2019-01-20T13:18:09.475Z,17.20
2019-01-20T13:20:39.173Z,14.40
2019-01-20T13:23:08.212Z,14.90
2019-01-20T13:25:37.317Z,15.10
2019-01-20T13:28:14.032Z,13.53
2019-01-20T13:30:43.349Z,18.13
2019-01-20T13:33:12.632Z,18.37
2019-01-20T13:35:41.874Z,16.43
2019-01-20T13:38:16.464Z,18.97
2019-01-20T13:40:58.084Z,18.23
2019-01-20T13:43:27.579Z,16.70
2019-01-20T13:45:56.577Z,13.77
2019-01-20T13:48:26.284Z,13.53
2019-01-20T13:50:55.306Z,13.43
2019-01-20T13:53:24.730Z,14.43
2019-01-20T13:56:01.012Z,15.70
2019-01-20T13:58:25.419Z,14.27
2019-01-20T14:00:54.498Z,12.33
2019-01-20T14:03:23.931Z,16.27
2019-01-20T14:05:53.235Z,11.93
2019-01-20T14:08:22.261Z,11.77
2019-01-20T14:10:51.660Z,10.27
2019-01-20T14:13:20.686Z,12.60
2019-01-20T14:15:49.737Z,13.47
2019-01-20T14:18:18.948Z,12.73
2019-01-20T14:20:48.030Z,12.70
2019-01-20T14:23:17.916Z,12.07
2019-01-20T14:25:46.899Z,12.37
2019-01-20T14:28:15.872Z,13.97
2019-01-20T14:30:45.193Z,11.97
2019-01-20T14:33:14.760Z,11.47
2019-01-20T14:35:44.503Z,12.90
2019-01-20T14:38:14.467Z,10.23
2019-01-20T14:40:44.567Z,12.13
2019-01-20T14:43:14.111Z,11.40
2019-01-20T14:45:43.430Z,13.33
2019-01-20T14:48:13.045Z,15.87
2019-01-20T14:50:42.713Z,9.40
2019-01-20T14:53:12.394Z,12.20
2019-01-20T14:55:42.120Z,15.13
2019-01-20T14:58:11.352Z,10.67
2019-01-20T15:00:41.399Z,10.03
2019-01-20T15:03:10.707Z,15.97
2019-01-20T15:05:39.797Z,11.40
2019-01-20T15:08:09.440Z,13.77
2019-01-20T15:10:38.805Z,11.27
2019-01-20T15:13:07.860Z,9.30
2019-01-20T15:15:39.024Z,9.30
2019-01-20T15:18:09.120Z,10.77
2019-01-20T15:20:38.984Z,14.20
2019-01-20T15:23:08.682Z,12.27
2019-01-20T15:25:37.716Z,11.80
2019-01-20T15:28:07.594Z,13.93
2019-01-20T15:30:38.412Z,12.43
2019-01-20T15:33:07.728Z,8.67
2019-01-20T15:35:36.803Z,11.33
2019-01-20T15:38:05.929Z,12.50
2019-01-20T15:40:34.964Z,11.17
2019-01-20T15:43:04.092Z,13.33
2019-01-20T15:45:33.501Z,15.73
2019-01-20T15:48:03.386Z,14.27
2019-01-20T15:50:33.185Z,13.63
2019-01-20T15:53:02.247Z,11.63
2019-01-20T15:55:31.655Z,15.43
2019-01-20T15:58:01.238Z,21.50
2019-01-20T16:00:31.726Z,13.87
2019-01-20T16:03:00.909Z,11.50
2019-01-20T16:05:30.421Z,12.97
2019-01-20T16:07:59.875Z,11.73
2019-01-20T16:10:28.850Z,11.20
2019-01-20T16:12:57.868Z,13.57
2019-01-20T16:15:32.484Z,11.57
2019-01-20T16:18:01.538Z,13.03
2019-01-20T16:20:31.775Z,11.40
2019-01-20T16:23:01.581Z,11.60
2019-01-20T16:25:32.695Z,15.47
2019-01-20T16:28:02.055Z,13.57
2019-01-20T16:30:33.619Z,12.63
2019-01-20T16:33:02.666Z,12.10
2019-01-20T16:35:32.431Z,11.90
2019-01-20T16:38:02.005Z,12.63
2019-01-20T16:40:31.030Z,12.30
2019-01-20T16:43:00.176Z,12.47
2019-01-20T16:45:42.021Z,12.13
2019-01-20T16:48:09.152Z,13.90
2019-01-20T16:50:38.400Z,12.00
2019-01-20T16:53:08.162Z,14.13
2019-01-20T16:55:37.872Z,16.20
2019-01-20T16:58:07.271Z,15.97
2019-01-20T17:00:38.791Z,12.13
2019-01-20T17:03:08.120Z,19.00
2019-01-20T17:05:37.135Z,12.00
2019-01-20T17:08:06.535Z,14.07
2019-01-20T17:10:38.139Z,21.20
2019-01-20T17:13:08.876Z,13.67
2019-01-20T17:15:40.097Z,19.07
2019-01-20T17:18:11.500Z,15.40
2019-01-20T17:20:40.634Z,15.20
2019-01-20T17:23:11.174Z,17.57
2019-01-20T17:25:40.156Z,16.30
2019-01-20T17:28:09.242Z,16.83
2019-01-20T17:30:38.774Z,16.00
2019-01-20T17:33:09.070Z,17.37
2019-01-20T17:35:37.997Z,13.23
2019-01-20T17:38:07.334Z,18.50
2019-01-20T17:40:36.649Z,13.17
2019-01-20T17:43:06.888Z,16.70
2019-01-20T17:45:38.577Z,16.40
2019-01-20T17:48:07.673Z,18.30
2019-01-20T17:50:38.446Z,22.67
2019-01-20T17:53:08.646Z,19.77
2019-01-20T17:55:37.978Z,21.47
2019-01-20T17:58:07.701Z,21.77
2019-01-20T18:00:43.323Z,21.57
2019-01-20T18:03:12.674Z,22.63
2019-01-20T18:05:41.855Z,28.17
2019-01-20T18:08:11.240Z,22.07
2019-01-20T18:10:40.771Z,22.77
2019-01-20T18:13:09.936Z,20.87
2019-01-20T18:15:38.979Z,25.10
2019-01-20T18:18:08.016Z,21.20
2019-01-20T18:20:37.069Z,20.70
2019-01-20T18:23:06.161Z,26.17
2019-01-20T18:25:35.241Z,19.60
2019-01-20T18:28:04.917Z,21.93
2019-01-20T18:30:34.033Z,18.87
2019-01-20T18:33:03.056Z,16.93
2019-01-20T18:35:32.130Z,19.23
2019-01-20T18:38:01.189Z,21.03
2019-01-20T18:40:30.340Z,22.70
2019-01-20T18:42:59.424Z,23.20
2019-01-20T18:45:30.636Z,18.77
2019-01-20T18:47:59.927Z,21.27
2019-01-20T18:50:31.047Z,44.33
2019-01-20T18:53:00.095Z,28.87
2019-01-20T18:55:29.780Z,22.73
2019-01-20T18:57:59.551Z,28.83
2019-01-20T19:00:40.644Z,25.67
2019-01-20T19:03:09.850Z,28.10
2019-01-20T19:05:39.341Z,24.77
2019-01-20T19:08:08.378Z,19.70
2019-01-20T19:10:37.407Z,20.43
2019-01-20T19:13:06.784Z,22.90
2019-01-20T19:15:35.849Z,22.97
2019-01-20T19:18:05.484Z,20.80
2019-01-20T19:20:34.876Z,22.97
2019-01-20T19:23:04.159Z,22.40
2019-01-20T19:25:33.720Z,18.70
2019-01-20T19:28:02.831Z,27.90
2019-01-20T19:30:33.380Z,19.73
2019-01-20T19:33:02.397Z,21.77
2019-01-20T19:35:32.223Z,22.03
2019-01-20T19:38:03.569Z,22.07
2019-01-20T19:40:32.365Z,28.37
2019-01-20T19:43:01.420Z,20.10
2019-01-20T19:45:30.772Z,19.60
2019-01-20T19:47:59.797Z,23.17
2019-01-20T19:50:28.843Z,21.87
2019-01-20T19:52:58.130Z,22.67
2019-01-20T19:55:29.344Z,31.97
2019-01-20T19:57:58.767Z,32.93
2019-01-20T20:00:28.350Z,30.77
2019-01-20T20:02:57.671Z,31.47
2019-01-20T20:05:27.016Z,30.87
2019-01-20T20:07:56.920Z,32.80
2019-01-20T20:10:27.049Z,35.57
2019-01-20T20:12:57.760Z,34.30
2019-01-20T20:15:27.457Z,29.83
2019-01-20T20:17:56.797Z,30.60
2019-01-20T20:20:26.132Z,31.33
2019-01-20T20:22:55.577Z,26.13
2019-01-20T20:25:26.382Z,29.03
2019-01-20T20:27:55.835Z,28.63
2019-01-20T20:30:36.162Z,31.47
2019-01-20T20:33:05.833Z,28.50
2019-01-20T20:35:35.133Z,33.30
2019-01-20T20:38:04.716Z,25.63
2019-01-20T20:40:33.800Z,27.10
2019-01-20T20:43:03.274Z,25.93
2019-01-20T20:45:32.339Z,27.40
2019-01-20T20:48:01.827Z,29.20
2019-01-20T20:50:31.016Z,29.27
2019-01-20T20:53:00.500Z,27.53
2019-01-20T20:55:29.683Z,46.33
2019-01-20T20:57:58.757Z,31.40
2019-01-20T21:00:34.188Z,31.20
2019-01-20T21:03:06.210Z,30.70
2019-01-20T21:05:35.292Z,28.77
2019-01-20T21:08:04.919Z,31.80
2019-01-20T21:10:33.949Z,28.03
2019-01-20T21:13:02.998Z,28.77
2019-01-20T21:15:32.638Z,28.90
2019-01-20T21:18:04.777Z,32.60
2019-01-20T21:20:33.844Z,27.40
2019-01-20T21:23:02.925Z,25.80
2019-01-20T21:25:31.974Z,25.20
2019-01-20T21:28:01.427Z,31.60
2019-01-20T21:30:33.610Z,28.17
2019-01-20T21:36:12.557Z,29.43
2019-01-20T21:38:41.896Z,27.23
2019-01-20T21:41:14.913Z,27.23
2019-01-20T21:43:44.085Z,31.27
2019-01-20T21:46:15.286Z,29.47
2019-01-20T21:48:46.353Z,23.70
2019-01-20T21:51:15.522Z,24.43
2019-01-20T21:53:44.539Z,24.13
2019-01-20T21:56:13.869Z,25.57
2019-01-20T21:58:47.009Z,28.07
2019-01-20T22:01:33.300Z,22.10
2019-01-20T22:04:06.696Z,27.03
2019-01-20T22:06:38.871Z,26.73
2019-01-20T22:09:13.237Z,26.47
2019-01-20T22:11:44.170Z,26.60
2019-01-20T22:14:15.963Z,25.17
2019-01-20T22:16:52.931Z,25.13
2019-01-20T22:19:22.713Z,29.43
2019-01-20T22:21:55.145Z,26.40
2019-01-20T22:24:24.302Z,23.47
2019-01-20T22:27:19.273Z,28.03
2019-01-20T22:30:04.484Z,23.70
2019-01-20T22:32:39.432Z,28.33
2019-01-20T22:35:28.764Z,25.77
2019-01-20T22:37:58.410Z,24.30
2019-01-20T22:40:27.650Z,24.37
2019-01-20T22:42:56.723Z,29.87
2019-01-20T22:45:27.416Z,28.00
2019-01-20T22:47:56.755Z,26.03
2019-01-20T22:50:25.907Z,25.50
2019-01-20T22:52:56.520Z,26.83
2019-01-20T22:55:25.713Z,33.40
2019-01-20T22:57:54.617Z,25.07
2019-01-20T23:00:56.628Z,28.33
2019-01-20T23:03:26.221Z,27.53
2019-01-20T23:05:56.639Z,31.87
2019-01-20T23:08:25.740Z,30.17
2019-01-20T23:10:55.304Z,29.10
2019-01-20T23:13:24.431Z,26.00
2019-01-20T23:15:54.012Z,26.23
2019-01-20T23:18:23.128Z,28.00
2019-01-20T23:20:52.788Z,26.57
2019-01-20T23:23:23.081Z,29.97
2019-01-20T23:25:52.097Z,26.87
2019-01-20T23:28:21.142Z,25.97
2019-01-20T23:30:50.174Z,25.67
2019-01-20T23:33:19.248Z,30.87
2019-01-20T23:35:48.641Z,28.47
2019-01-20T23:38:17.534Z,24.40
2019-01-20T23:40:46.816Z,30.03
2019-01-20T23:43:15.901Z,26.47
2019-01-20T23:45:44.956Z,26.53
2019-01-20T23:48:13.878Z,30.47
2019-01-20T23:50:42.854Z,31.87
2019-01-20T23:53:11.900Z,27.33
2019-01-20T23:55:40.937Z,27.97
2019-01-20T23:58:10.001Z,26.37
